Time;durP1;ratioP1;P1;durP2;ratioP2;P2;SDS_P1;SDS_P2;PMS_P1;PMS_P2;Temp;Humidity;BMP_temperature;BMP_pressure;BME280_temperature;BME280_humidity;BME280_pressure;Samples;Min_cycle;Max_cycle;Signal;HPM_P1;HPM_P2
2021/09/01 00:00:29;;;;;;;13.35;11.95;;;;;;;;;;143739;578;47018;-53
2021/09/01 00:02:56;;;;;;;14.70;11.88;;;;;;;;;;143740;641;46010;-53
2021/09/01 00:05:23;;;;;;;18.00;11.57;;;;;;;;;;143739;592;46019;-53
2021/09/01 00:07:50;;;;;;;16.92;12.52;;;;;;;;;;143743;607;46022;-53
2021/09/01 00:10:18;;;;;;;15.35;11.90;;;;;;;;;;143740;614;46020;-53
2021/09/01 00:12:45;;;;;;;17.90;13.25;;;;;;;;;;143743;704;46010;-53
2021/09/01 00:15:13;;;;;;;20.25;13.55;;;;;;;;;;143736;639;46018;-53
2021/09/01 00:17:40;;;;;;;16.02;13.35;;;;;;;;;;143745;653;46010;-53
2021/09/01 00:20:09;;;;;;;19.08;13.60;;;;;;;;;;143737;595;47018;-53
2021/09/01 00:22:38;;;;;;;24.35;14.70;;;;;;;;;;143738;579;46022;-53
2021/09/01 00:25:07;;;;;;;19.80;13.62;;;;;;;;;;143739;623;46018;-53
2021/09/01 00:27:34;;;;;;;17.25;13.73;;;;;;;;;;143744;603;46023;-53
2021/09/01 00:30:00;;;;;;;22.05;15.00;;;;;;;;;;143736;618;47018;-53
2021/09/01 00:32:27;;;;;;;25.73;16.60;;;;;;;;;;143745;592;46010;-53
2021/09/01 00:34:54;;;;;;;21.20;14.98;;;;;;;;;;143741;577;46021;-53
2021/09/01 00:37:22;;;;;;;21.05;14.50;;;;;;;;;;143744;750;46020;-53
2021/09/01 00:39:49;;;;;;;23.90;13.80;;;;;;;;;;143736;589;46022;-53
2021/09/01 00:42:16;;;;;;;25.88;15.35;;;;;;;;;;143741;580;46010;-53
2021/09/01 00:44:43;;;;;;;19.70;13.52;;;;;;;;;;143737;564;46020;-53
2021/09/01 00:47:10;;;;;;;20.05;14.45;;;;;;;;;;143744;593;46010;-53
2021/09/01 00:49:37;;;;;;;15.98;13.02;;;;;;;;;;143739;591;47021;-53
2021/09/01 00:52:05;;;;;;;21.30;13.88;;;;;;;;;;143740;583;47010;-53
2021/09/01 00:54:32;;;;;;;15.75;12.00;;;;;;;;;;143740;594;46909;-53
2021/09/01 00:57:01;;;;;;;18.58;13.00;;;;;;;;;;143743;564;46021;-53
2021/09/01 00:59:32;;;;;;;16.23;11.45;;;;;;;;;;143740;573;46022;-52
2021/09/01 01:02:00;;;;;;;18.37;13.70;;;;;;;;;;143742;617;46011;-53
2021/09/01 01:04:34;;;;;;;16.73;12.95;;;;;;;;;;143736;620;46021;-53
2021/09/01 01:07:09;;;;;;;21.23;14.07;;;;;;;;;;143742;564;46020;-53
2021/09/01 01:09:37;;;;;;;22.45;16.50;;;;;;;;;;143740;746;46022;-53
2021/09/01 01:12:13;;;;;;;28.38;18.90;;;;;;;;;;143740;698;46020;-53
2021/09/01 01:14:45;;;;;;;24.98;14.60;;;;;;;;;;143742;600;46029;-53
2021/09/01 01:17:14;;;;;;;18.23;14.93;;;;;;;;;;143742;600;46020;-53
2021/09/01 01:19:48;;;;;;;17.95;13.93;;;;;;;;;;143740;596;46023;-53
2021/09/01 01:22:16;;;;;;;23.02;14.48;;;;;;;;;;143741;555;46010;-53
2021/09/01 01:24:48;;;;;;;16.00;12.10;;;;;;;;;;143739;578;46020;-53
2021/09/01 01:27:47;;;;;;;15.25;12.20;;;;;;;;;;143744;591;46010;-53
2021/09/01 01:30:20;;;;;;;17.02;11.65;;;;;;;;;;143737;632;46020;-53
2021/09/01 01:32:50;;;;;;;14.75;11.82;;;;;;;;;;143743;621;46010;-53
2021/09/01 01:35:32;;;;;;;19.40;14.75;;;;;;;;;;143738;617;46020;-53
2021/09/01 01:38:01;;;;;;;19.35;14.00;;;;;;;;;;143744;637;46010;-53
2021/09/01 01:40:29;;;;;;;19.37;12.48;;;;;;;;;;143741;571;46052;-53
2021/09/01 01:42:56;;;;;;;19.62;14.20;;;;;;;;;;143740;598;46020;-53
2021/09/01 01:45:25;;;;;;;18.85;13.35;;;;;;;;;;143742;569;46020;-53
2021/09/01 01:47:52;;;;;;;19.92;13.70;;;;;;;;;;143743;610;46012;-53
2021/09/01 01:50:19;;;;;;;25.62;14.65;;;;;;;;;;143741;569;46036;-53
2021/09/01 01:52:46;;;;;;;21.25;15.63;;;;;;;;;;143742;569;46010;-53
2021/09/01 01:55:13;;;;;;;21.58;16.73;;;;;;;;;;143734;605;46021;-53
2021/09/01 01:57:40;;;;;;;19.65;15.55;;;;;;;;;;143746;654;46010;-53
2021/09/01 02:00:08;;;;;;;21.70;13.57;;;;;;;;;;143741;582;46022;-53
2021/09/01 02:02:36;;;;;;;13.98;12.13;;;;;;;;;;143741;594;46010;-53
2021/09/01 02:05:02;;;;;;;18.70;13.30;;;;;;;;;;143740;569;46020;-53
2021/09/01 02:07:30;;;;;;;20.67;14.18;;;;;;;;;;143749;614;46022;-53
2021/09/01 02:09:57;;;;;;;19.12;15.05;;;;;;;;;;143739;626;47019;-53
2021/09/01 02:12:28;;;;;;;23.52;15.68;;;;;;;;;;143742;589;46010;-53
2021/09/01 02:14:56;;;;;;;21.83;16.60;;;;;;;;;;143741;584;46018;-53
2021/09/01 02:17:24;;;;;;;27.58;19.33;;;;;;;;;;143745;600;46010;-53
2021/09/01 02:19:52;;;;;;;25.92;20.35;;;;;;;;;;143736;639;46018;-53
2021/09/01 02:22:18;;;;;;;22.30;18.92;;;;;;;;;;143742;612;46010;-53
2021/09/01 02:24:45;;;;;;;22.40;17.80;;;;;;;;;;143748;621;46020;-53
2021/09/01 02:27:12;;;;;;;23.33;19.23;;;;;;;;;;143743;619;46020;-53
2021/09/01 02:29:39;;;;;;;30.83;21.55;;;;;;;;;;143739;618;46022;-53
2021/09/01 02:32:07;;;;;;;28.58;18.20;;;;;;;;;;143741;595;46010;-53
2021/09/01 02:34:34;;;;;;;19.52;14.07;;;;;;;;;;143738;570;47021;-53
2021/09/01 02:37:02;;;;;;;20.52;16.17;;;;;;;;;;143745;584;46010;-53
2021/09/01 02:39:29;;;;;;;24.50;16.50;;;;;;;;;;143741;571;46022;-52
2021/09/01 02:41:56;;;;;;;32.70;19.48;;;;;;;;;;143740;611;46010;-53
2021/09/01 02:44:23;;;;;;;23.87;18.48;;;;;;;;;;143734;591;46020;-53
2021/09/01 02:46:51;;;;;;;26.05;18.80;;;;;;;;;;143743;569;46020;-53
2021/09/01 02:49:18;;;;;;;25.08;17.87;;;;;;;;;;143739;590;46020;-53
2021/09/01 02:51:44;;;;;;;25.75;17.77;;;;;;;;;;143740;588;46010;-53
2021/09/01 02:54:11;;;;;;;25.35;17.83;;;;;;;;;;143740;601;46021;-53
2021/09/01 02:56:39;;;;;;;23.55;16.90;;;;;;;;;;143742;572;46020;-53
2021/09/01 02:59:05;;;;;;;23.33;16.37;;;;;;;;;;143743;579;46022;-53
2021/09/01 03:01:33;;;;;;;23.20;16.65;;;;;;;;;;143733;590;46020;-53
2021/09/01 03:04:00;;;;;;;24.83;16.95;;;;;;;;;;143739;574;46021;-53
2021/09/01 03:06:27;;;;;;;27.15;17.87;;;;;;;;;;143739;575;46012;-52
2021/09/01 03:08:54;;;;;;;23.65;16.50;;;;;;;;;;143734;581;46022;-53
2021/09/01 03:11:21;;;;;;;23.05;16.70;;;;;;;;;;143737;586;46010;-53
2021/09/01 03:13:48;;;;;;;25.70;16.58;;;;;;;;;;143738;569;46020;-53
2021/09/01 03:16:15;;;;;;;27.58;17.40;;;;;;;;;;143741;607;46010;-53
2021/09/01 03:18:42;;;;;;;23.40;15.70;;;;;;;;;;143738;566;46020;-53
2021/09/01 03:21:10;;;;;;;21.12;15.93;;;;;;;;;;143739;602;46010;-53
2021/09/01 03:23:37;;;;;;;17.83;13.30;;;;;;;;;;143737;564;46028;-52
2021/09/01 03:26:04;;;;;;;21.27;15.23;;;;;;;;;;143741;569;46020;-52
2021/09/01 03:28:31;;;;;;;23.98;16.45;;;;;;;;;;143738;606;47034;-53
2021/09/01 03:30:58;;;;;;;19.40;15.95;;;;;;;;;;143736;623;46011;-52
2021/09/01 03:33:25;;;;;;;23.98;15.82;;;;;;;;;;143732;564;46021;-53
2021/09/01 03:35:53;;;;;;;23.35;14.10;;;;;;;;;;143742;612;46012;-53
2021/09/01 03:38:20;;;;;;;21.83;15.07;;;;;;;;;;143738;579;46022;-53
2021/09/01 03:40:47;;;;;;;26.23;15.70;;;;;;;;;;143741;614;46010;-52
2021/09/01 03:43:14;;;;;;;18.92;13.55;;;;;;;;;;143739;586;46020;-53
2021/09/01 03:45:41;;;;;;;18.90;13.88;;;;;;;;;;143740;590;46012;-53
2021/09/01 03:48:08;;;;;;;28.50;14.85;;;;;;;;;;143738;620;47020;-52
2021/09/01 03:50:35;;;;;;;20.05;14.57;;;;;;;;;;143740;612;46010;-53
2021/09/01 03:53:02;;;;;;;22.42;15.18;;;;;;;;;;143738;571;46909;-53
2021/09/01 03:55:29;;;;;;;20.33;15.73;;;;;;;;;;143740;579;46021;-53
2021/09/01 03:57:55;;;;;;;20.95;14.23;;;;;;;;;;143735;614;46020;-52
2021/09/01 04:00:22;;;;;;;28.05;16.00;;;;;;;;;;143739;615;46021;-53
2021/09/01 04:02:49;;;;;;;24.80;15.77;;;;;;;;;;143739;613;46021;-53
2021/09/01 04:05:16;;;;;;;26.77;15.40;;;;;;;;;;143741;803;46010;-52
2021/09/01 04:07:44;;;;;;;21.08;14.60;;;;;;;;;;143738;621;46022;-52
2021/09/01 04:10:11;;;;;;;20.92;14.73;;;;;;;;;;143741;573;46010;-53
2021/09/01 04:12:38;;;;;;;28.00;15.73;;;;;;;;;;143740;614;46020;-53
2021/09/01 04:15:06;;;;;;;28.58;15.77;;;;;;;;;;143741;621;46010;-53
2021/09/01 04:17:33;;;;;;;21.95;14.90;;;;;;;;;;143736;565;47023;-53
2021/09/01 04:20:00;;;;;;;27.08;15.30;;;;;;;;;;143738;616;46010;-53
2021/09/01 04:22:27;;;;;;;23.25;15.10;;;;;;;;;;143732;592;46020;-53
2021/09/01 04:24:54;;;;;;;23.83;15.32;;;;;;;;;;143743;607;46021;-53
2021/09/01 04:27:21;;;;;;;23.45;15.23;;;;;;;;;;143734;590;47022;-53
2021/09/01 04:29:48;;;;;;;26.75;15.27;;;;;;;;;;143738;621;46010;-53
2021/09/01 04:32:15;;;;;;;26.27;15.10;;;;;;;;;;143736;606;46021;-54
2021/09/01 04:34:42;;;;;;;30.33;15.38;;;;;;;;;;143740;612;46020;-53
2021/09/01 04:37:09;;;;;;;34.35;16.77;;;;;;;;;;143737;595;46022;-53
2021/09/01 04:39:36;;;;;;;24.52;15.30;;;;;;;;;;143739;592;46011;-53
2021/09/01 04:42:04;;;;;;;24.15;15.02;;;;;;;;;;143735;661;46020;-53
2021/09/01 04:44:32;;;;;;;22.62;16.00;;;;;;;;;;143744;603;46010;-53
2021/09/01 04:46:59;;;;;;;28.20;14.00;;;;;;;;;;143734;564;46022;-53
2021/09/01 04:49:26;;;;;;;37.65;18.20;;;;;;;;;;143737;564;46010;-53
2021/09/01 04:51:53;;;;;;;30.00;18.40;;;;;;;;;;143740;583;46020;-53
2021/09/01 04:54:20;;;;;;;35.75;16.80;;;;;;;;;;143740;613;46020;-53
2021/09/01 04:56:47;;;;;;;34.58;17.45;;;;;;;;;;143738;570;47020;-53
2021/09/01 04:59:14;;;;;;;28.05;17.17;;;;;;;;;;143739;595;46010;-53
2021/09/01 05:01:41;;;;;;;32.22;17.15;;;;;;;;;;143740;582;46020;-53
2021/09/01 05:04:08;;;;;;;25.37;16.10;;;;;;;;;;143744;610;46012;-53
2021/09/01 05:06:35;;;;;;;23.38;14.75;;;;;;;;;;143739;669;46022;-53
2021/09/01 05:09:02;;;;;;;22.23;14.80;;;;;;;;;;143739;639;46011;-53
2021/09/01 05:11:29;;;;;;;24.63;14.73;;;;;;;;;;143733;605;46021;-53
2021/09/01 05:13:56;;;;;;;24.60;15.43;;;;;;;;;;143740;603;46020;-54
2021/09/01 05:16:23;;;;;;;20.40;15.70;;;;;;;;;;143738;602;46022;-54
2021/09/01 05:18:50;;;;;;;22.37;16.20;;;;;;;;;;143739;573;46010;-54
2021/09/01 05:21:21;;;;;;;25.77;15.23;;;;;;;;;;143739;577;46020;-53
2021/09/01 05:23:52;;;;;;;23.87;14.63;;;;;;;;;;143742;609;46010;-54
2021/09/01 05:26:23;;;;;;;39.63;16.98;;;;;;;;;;143739;573;46051;-54
2021/09/01 05:28:50;;;;;;;23.02;14.55;;;;;;;;;;143740;589;46010;-53
2021/09/01 05:31:19;;;;;;;29.05;14.60;;;;;;;;;;143739;576;46021;-53
2021/09/01 05:33:50;;;;;;;25.35;15.02;;;;;;;;;;143743;586;46010;-54
2021/09/01 05:36:18;;;;;;;28.42;15.95;;;;;;;;;;143733;602;47020;-54
2021/09/01 05:38:46;;;;;;;26.42;14.65;;;;;;;;;;143739;607;46010;-55
2021/09/01 05:41:14;;;;;;;34.15;15.60;;;;;;;;;;143737;581;46020;-53
2021/09/01 05:43:43;;;;;;;27.83;15.32;;;;;;;;;;143741;569;46010;-55
2021/09/01 05:46:11;;;;;;;34.25;17.45;;;;;;;;;;143737;649;46022;-54
2021/09/01 05:48:38;;;;;;;29.27;17.55;;;;;;;;;;143740;583;46010;-55
2021/09/01 05:51:07;;;;;;;27.52;16.83;;;;;;;;;;143739;641;46020;-54
2021/09/01 05:53:34;;;;;;;30.55;17.37;;;;;;;;;;143744;641;46010;-54
2021/09/01 05:56:07;;;;;;;29.70;16.23;;;;;;;;;;143739;576;46020;-54
2021/09/01 05:58:37;;;;;;;31.60;14.63;;;;;;;;;;143739;627;46018;-54
2021/09/01 06:01:06;;;;;;;22.45;13.77;;;;;;;;;;143733;606;46020;-54
2021/09/01 06:03:37;;;;;;;25.98;13.10;;;;;;;;;;143740;595;46020;-54
2021/09/01 06:06:04;;;;;;;23.73;12.77;;;;;;;;;;143737;600;46022;-54
2021/09/01 06:08:34;;;;;;;23.85;13.90;;;;;;;;;;143740;606;46010;-54
2021/09/01 06:11:04;;;;;;;18.83;11.55;;;;;;;;;;143739;609;46021;-53
2021/09/01 06:13:31;;;;;;;16.73;11.35;;;;;;;;;;143740;571;46020;-53
2021/09/01 06:15:58;;;;;;;16.73;11.10;;;;;;;;;;143739;593;46021;-53
2021/09/01 06:18:25;;;;;;;25.33;12.00;;;;;;;;;;143741;592;46010;-53
2021/09/01 06:20:54;;;;;;;22.40;13.13;;;;;;;;;;143739;582;46020;-53
2021/09/01 06:23:22;;;;;;;23.83;11.20;;;;;;;;;;143743;621;46020;-54
2021/09/01 06:25:49;;;;;;;22.73;12.25;;;;;;;;;;143734;633;46023;-53
2021/09/01 06:28:16;;;;;;;21.05;11.65;;;;;;;;;;143738;614;46010;-53
2021/09/01 06:30:43;;;;;;;21.27;11.60;;;;;;;;;;143739;570;46021;-53
2021/09/01 06:33:10;;;;;;;15.35;11.25;;;;;;;;;;143741;573;46020;-53
2021/09/01 06:35:37;;;;;;;16.20;10.80;;;;;;;;;;143737;588;46022;-54
2021/09/01 06:38:06;;;;;;;16.62;10.25;;;;;;;;;;143739;593;46011;-54
2021/09/01 06:40:33;;;;;;;14.50;10.50;;;;;;;;;;143740;613;46020;-53
2021/09/01 06:43:00;;;;;;;13.27;10.35;;;;;;;;;;143739;595;46020;-53
2021/09/01 06:45:27;;;;;;;14.38;9.98;;;;;;;;;;143739;584;47021;-54
2021/09/01 06:47:54;;;;;;;14.73;10.10;;;;;;;;;;143739;609;46010;-53
2021/09/01 06:50:26;;;;;;;15.88;9.68;;;;;;;;;;143732;569;46020;-53
2021/09/01 06:52:54;;;;;;;16.55;9.40;;;;;;;;;;143744;582;46021;-52
2021/09/01 06:55:22;;;;;;;14.38;9.75;;;;;;;;;;143738;567;46020;-53
2021/09/01 06:57:49;;;;;;;11.15;9.00;;;;;;;;;;143740;574;46010;-54
2021/09/01 07:00:18;;;;;;;16.10;10.10;;;;;;;;;;143739;611;46029;-55
2021/09/01 07:02:45;;;;;;;14.65;9.68;;;;;;;;;;143742;663;46020;-54
2021/09/01 07:05:14;;;;;;;15.55;9.35;;;;;;;;;;143739;576;47020;-53
2021/09/01 07:07:42;;;;;;;11.88;9.50;;;;;;;;;;143742;575;46010;-54
2021/09/01 07:10:10;;;;;;;14.57;9.68;;;;;;;;;;143738;571;46021;-54
2021/09/01 07:12:37;;;;;;;15.52;9.48;;;;;;;;;;143742;567;46010;-53
2021/09/01 07:15:08;;;;;;;13.75;9.23;;;;;;;;;;143732;572;46021;-53
2021/09/01 07:17:36;;;;;;;14.73;9.65;;;;;;;;;;143740;578;46918;-53
2021/09/01 07:20:03;;;;;;;12.30;9.05;;;;;;;;;;143739;661;46020;-54
2021/09/01 07:22:30;;;;;;;14.45;8.60;;;;;;;;;;143743;564;46020;-53
2021/09/01 07:24:58;;;;;;;15.05;7.85;;;;;;;;;;143736;581;46020;-53
2021/09/01 07:27:25;;;;;;;13.75;8.55;;;;;;;;;;143741;601;46010;-53
2021/09/01 07:29:52;;;;;;;14.38;8.43;;;;;;;;;;143740;606;46021;-53
2021/09/01 07:32:19;;;;;;;12.25;9.18;;;;;;;;;;143742;670;46020;-53
2021/09/01 07:34:46;;;;;;;14.30;8.57;;;;;;;;;;143739;564;46020;-53
2021/09/01 07:37:13;;;;;;;11.68;9.43;;;;;;;;;;143740;700;46011;-53
2021/09/01 07:39:40;;;;;;;9.85;7.72;;;;;;;;;;143734;610;46021;-53
2021/09/01 07:42:07;;;;;;;11.55;7.43;;;;;;;;;;143743;641;46020;-54
2021/09/01 07:44:34;;;;;;;10.35;8.40;;;;;;;;;;143739;569;46022;-54
2021/09/01 07:47:01;;;;;;;18.30;9.68;;;;;;;;;;143739;659;47917;-53
2021/09/01 07:49:28;;;;;;;12.32;8.00;;;;;;;;;;143741;629;46020;-53
2021/09/01 07:51:55;;;;;;;15.25;8.43;;;;;;;;;;143743;574;45020;-54
2021/09/01 07:54:22;;;;;;;10.77;7.37;;;;;;;;;;143741;643;46020;-54
2021/09/01 07:56:49;;;;;;;13.70;8.27;;;;;;;;;;143740;647;46010;-54
2021/09/01 07:59:16;;;;;;;10.45;7.85;;;;;;;;;;143741;569;46020;-53
2021/09/01 08:01:43;;;;;;;16.62;7.37;;;;;;;;;;143737;631;46021;-53
2021/09/01 08:04:10;;;;;;;15.88;8.82;;;;;;;;;;143736;576;46020;-54
2021/09/01 08:06:37;;;;;;;12.85;8.18;;;;;;;;;;143737;626;46021;-54
2021/09/01 08:09:04;;;;;;;12.37;7.57;;;;;;;;;;143740;630;46021;-54
2021/09/01 08:11:31;;;;;;;9.52;7.50;;;;;;;;;;143741;590;46020;-53
2021/09/01 08:13:58;;;;;;;10.73;8.02;;;;;;;;;;143739;578;46021;-53
2021/09/01 08:16:26;;;;;;;12.23;7.93;;;;;;;;;;143740;569;47010;-53
2021/09/01 08:18:53;;;;;;;12.65;8.77;;;;;;;;;;143741;587;46020;-53
2021/09/01 08:21:20;;;;;;;13.73;9.05;;;;;;;;;;143742;681;46021;-53
2021/09/01 08:23:47;;;;;;;13.85;8.38;;;;;;;;;;143736;647;47023;-53
2021/09/01 08:26:14;;;;;;;14.15;8.40;;;;;;;;;;143739;604;46010;-54
2021/09/01 08:28:43;;;;;;;13.93;9.05;;;;;;;;;;143733;591;46029;-54
2021/09/01 08:31:10;;;;;;;10.27;7.72;;;;;;;;;;143744;575;46010;-54
2021/09/01 08:33:37;;;;;;;11.75;7.40;;;;;;;;;;143739;600;46022;-53
2021/09/01 08:36:05;;;;;;;14.18;7.53;;;;;;;;;;143739;698;47010;-54
2021/09/01 08:38:32;;;;;;;11.40;8.10;;;;;;;;;;143740;663;46021;-54
2021/09/01 08:40:59;;;;;;;11.05;7.43;;;;;;;;;;143744;614;46010;-53
2021/09/01 08:43:26;;;;;;;11.52;7.32;;;;;;;;;;143738;588;46021;-53
2021/09/01 08:45:54;;;;;;;10.88;7.07;;;;;;;;;;143737;635;47010;-53
2021/09/01 08:48:23;;;;;;;9.93;7.82;;;;;;;;;;143741;600;46020;-54
2021/09/01 08:50:50;;;;;;;10.25;7.85;;;;;;;;;;143735;575;47010;-53
2021/09/01 08:53:17;;;;;;;12.45;9.57;;;;;;;;;;143734;574;46020;-54
2021/09/01 08:55:44;;;;;;;13.30;10.25;;;;;;;;;;143740;585;46010;-54
2021/09/01 08:58:11;;;;;;;13.52;9.02;;;;;;;;;;143737;602;46020;-54
2021/09/01 09:00:38;;;;;;;16.62;7.68;;;;;;;;;;143742;607;46021;-54
2021/09/01 09:03:05;;;;;;;12.27;8.38;;;;;;;;;;143739;644;46022;-54
2021/09/01 09:05:37;;;;;;;12.07;7.95;;;;;;;;;;143740;662;46011;-54
2021/09/01 09:08:06;;;;;;;15.13;6.70;;;;;;;;;;143741;581;46021;-53
2021/09/01 09:10:38;;;;;;;9.90;6.45;;;;;;;;;;143743;599;46010;-54
2021/09/01 09:13:11;;;;;;;10.27;6.03;;;;;;;;;;143740;627;46021;-54
2021/09/01 09:15:39;;;;;;;8.90;6.53;;;;;;;;;;143741;588;46010;-53
2021/09/01 09:18:27;;;;;;;9.02;5.85;;;;;;;;;;143736;596;46020;-53
2021/09/01 09:21:09;;;;;;;9.18;6.10;;;;;;;;;;143744;588;46010;-53
2021/09/01 09:23:36;;;;;;;10.02;5.90;;;;;;;;;;143739;600;46020;-54
2021/09/01 09:26:22;;;;;;;9.07;5.82;;;;;;;;;;143739;619;47010;-54
2021/09/01 09:29:14;;;;;;;8.68;5.25;;;;;;;;;;143741;583;46020;-53
2021/09/01 09:31:43;;;;;;;9.57;5.43;;;;;;;;;;143747;589;46020;-53
2021/09/01 09:34:18;;;;;;;8.90;5.93;;;;;;;;;;143739;664;47020;-55
2021/09/01 09:37:13;;;;;;;9.25;5.93;;;;;;;;;;143741;583;47010;-54
2021/09/01 09:39:51;;;;;;;7.97;6.35;;;;;;;;;;143743;608;46020;-53
2021/09/01 09:42:38;;;;;;;8.80;5.97;;;;;;;;;;143739;617;46020;-54
2021/09/01 09:45:25;;;;;;;10.15;5.72;;;;;;;;;;143734;623;47020;-52
2021/09/01 09:47:56;;;;;;;13.38;6.30;;;;;;;;;;143740;565;46010;-53
2021/09/01 09:50:24;;;;;;;8.60;5.62;;;;;;;;;;143738;647;46020;-53
2021/09/01 09:52:51;;;;;;;11.05;5.72;;;;;;;;;;143740;595;46020;-54
2021/09/01 09:55:20;;;;;;;9.55;6.60;;;;;;;;;;143740;699;46020;-53
2021/09/01 09:58:08;;;;;;;9.35;5.72;;;;;;;;;;143741;656;46011;-53
2021/09/01 10:00:35;;;;;;;9.52;5.97;;;;;;;;;;143741;571;46021;-53
2021/09/01 10:03:04;;;;;;;9.40;5.87;;;;;;;;;;143743;569;46020;-54
2021/09/01 10:05:31;;;;;;;7.47;5.62;;;;;;;;;;143742;652;46021;-53
2021/09/01 10:08:00;;;;;;;9.82;5.90;;;;;;;;;;143742;609;46010;-54
2021/09/01 10:10:27;;;;;;;11.63;5.72;;;;;;;;;;143734;564;46020;-53
2021/09/01 10:12:54;;;;;;;7.07;5.12;;;;;;;;;;143744;648;46020;-53
2021/09/01 10:15:32;;;;;;;8.90;5.45;;;;;;;;;;143740;574;46023;-53
2021/09/01 10:18:06;;;;;;;7.60;5.60;;;;;;;;;;143741;623;46010;-53
2021/09/01 10:20:36;;;;;;;7.20;5.20;;;;;;;;;;143736;649;47020;-54
2021/09/01 10:23:05;;;;;;;10.25;5.95;;;;;;;;;;143744;606;46021;-53
2021/09/01 10:25:43;;;;;;;7.70;5.32;;;;;;;;;;143740;603;46020;-54
2021/09/01 10:28:32;;;;;;;7.70;5.25;;;;;;;;;;143741;618;46010;-53
2021/09/01 10:31:31;;;;;;;8.82;6.07;;;;;;;;;;143743;605;46021;-52
2021/09/01 10:34:02;;;;;;;7.95;5.80;;;;;;;;;;143742;577;46020;-52
2021/09/01 10:36:39;;;;;;;15.07;5.53;;;;;;;;;;143727;576;49013;-52
2021/09/01 10:39:40;;;;;;;11.02;5.10;;;;;;;;;;143739;564;46020;-51
2021/09/01 10:42:35;;;;;;;11.25;5.70;;;;;;;;;;143741;604;46020;-51
2021/09/01 10:45:05;;;;;;;8.27;5.65;;;;;;;;;;143746;577;45021;-54
2021/09/01 10:48:09;;;;;;;9.60;5.57;;;;;;;;;;143741;633;46020;-53
2021/09/01 10:50:42;;;;;;;7.03;5.10;;;;;;;;;;143741;586;46021;-52
2021/09/01 10:53:37;;;;;;;11.75;5.95;;;;;;;;;;143741;581;46021;-53
2021/09/01 10:56:13;;;;;;;9.00;5.20;;;;;;;;;;143744;587;46020;-52
2021/09/01 10:58:41;;;;;;;9.05;6.43;;;;;;;;;;143740;585;46021;-53
2021/09/01 11:01:21;;;;;;;8.30;5.87;;;;;;;;;;143740;619;49030;-53
2021/09/01 11:04:02;;;;;;;8.55;5.70;;;;;;;;;;143736;579;46020;-53
2021/09/01 11:06:34;;;;;;;12.05;6.70;;;;;;;;;;143730;624;46021;-53
2021/09/01 11:09:15;;;;;;;11.02;5.87;;;;;;;;;;143739;566;47020;-54
2021/09/01 11:11:53;;;;;;;8.43;6.20;;;;;;;;;;143743;629;46010;-53
2021/09/01 11:14:38;;;;;;;9.13;6.20;;;;;;;;;;143742;594;46021;-53
2021/09/01 11:17:10;;;;;;;9.75;6.25;;;;;;;;;;143744;574;46010;-53
2021/09/01 11:19:39;;;;;;;8.82;6.18;;;;;;;;;;143743;610;46020;-53
2021/09/01 11:22:08;;;;;;;16.05;6.82;;;;;;;;;;143743;581;46010;-53
2021/09/01 11:25:07;;;;;;;12.07;6.53;;;;;;;;;;143740;604;46020;-53
2021/09/01 11:27:38;;;;;;;9.23;6.05;;;;;;;;;;143743;605;46019;-53
2021/09/01 11:30:10;;;;;;;13.55;6.80;;;;;;;;;;143736;586;47007;-53
2021/09/01 11:32:39;;;;;;;9.60;7.15;;;;;;;;;;143743;593;46010;-53
2021/09/01 11:35:09;;;;;;;8.50;6.50;;;;;;;;;;143742;558;46020;-52
2021/09/01 11:37:36;;;;;;;13.02;7.07;;;;;;;;;;143745;570;46021;-53
2021/09/01 11:40:04;;;;;;;13.62;7.18;;;;;;;;;;143741;629;46020;-53
2021/09/01 11:42:34;;;;;;;12.15;7.22;;;;;;;;;;143743;618;46010;-53
2021/09/01 11:45:03;;;;;;;11.77;7.00;;;;;;;;;;143743;585;46021;-52
2021/09/01 11:47:30;;;;;;;12.13;7.35;;;;;;;;;;143742;658;46020;-53
2021/09/01 11:49:57;;;;;;;9.48;6.70;;;;;;;;;;143740;577;46036;-53
2021/09/01 11:52:31;;;;;;;16.58;9.93;;;;;;;;;;143741;653;46010;-53
2021/09/01 11:54:59;;;;;;;9.90;7.03;;;;;;;;;;143738;658;46020;-53
2021/09/01 11:57:31;;;;;;;10.82;6.75;;;;;;;;;;143744;583;46021;-53
2021/09/01 11:59:59;;;;;;;11.15;8.02;;;;;;;;;;143741;581;46021;-53
2021/09/01 12:02:31;;;;;;;9.85;7.03;;;;;;;;;;143742;606;46010;-53
2021/09/01 12:04:59;;;;;;;10.05;7.28;;;;;;;;;;143740;600;46021;-54
2021/09/01 12:07:31;;;;;;;8.77;6.60;;;;;;;;;;143744;646;46020;-53
2021/09/01 12:10:08;;;;;;;11.80;7.07;;;;;;;;;;143743;652;46020;-54
2021/09/01 12:12:37;;;;;;;15.55;6.68;;;;;;;;;;143744;580;46010;-53
2021/09/01 12:15:15;;;;;;;12.32;7.65;;;;;;;;;;143742;623;46021;-52
2021/09/01 12:17:47;;;;;;;11.55;7.20;;;;;;;;;;143747;636;46010;-54
2021/09/01 12:20:16;;;;;;;10.73;7.22;;;;;;;;;;143738;600;46021;-53
2021/09/01 12:22:45;;;;;;;14.73;7.53;;;;;;;;;;143742;666;46010;-52
2021/09/01 12:25:23;;;;;;;10.25;7.15;;;;;;;;;;143743;571;46020;-53
2021/09/01 12:28:10;;;;;;;10.82;6.68;;;;;;;;;;143745;677;46020;-54
2021/09/01 12:30:44;;;;;;;9.63;7.25;;;;;;;;;;143742;692;46020;-53
2021/09/01 12:33:16;;;;;;;11.23;7.32;;;;;;;;;;143742;626;46010;-54
2021/09/01 12:35:45;;;;;;;10.23;7.05;;;;;;;;;;143742;578;46020;-53
2021/09/01 12:38:24;;;;;;;11.20;7.12;;;;;;;;;;143747;626;46010;-54
2021/09/01 12:40:51;;;;;;;8.85;7.00;;;;;;;;;;143742;591;46020;-54
2021/09/01 12:43:19;;;;;;;8.90;7.00;;;;;;;;;;143742;608;46010;-54
2021/09/01 12:45:46;;;;;;;12.55;7.15;;;;;;;;;;143737;630;46020;-53
2021/09/01 12:48:18;;;;;;;8.57;6.93;;;;;;;;;;143746;580;46010;-52
2021/09/01 12:50:47;;;;;;;9.40;6.45;;;;;;;;;;143741;567;46021;-53
2021/09/01 12:53:23;;;;;;;10.27;6.75;;;;;;;;;;143741;641;46020;-52
2021/09/01 12:55:53;;;;;;;13.05;6.65;;;;;;;;;;143743;565;46020;-55
2021/09/01 12:58:20;;;;;;;14.48;6.60;;;;;;;;;;143746;584;46010;-54
2021/09/01 13:00:46;;;;;;;10.82;6.47;;;;;;;;;;143741;569;46020;-54
2021/09/01 13:03:13;;;;;;;9.07;6.85;;;;;;;;;;143742;605;46010;-54
2021/09/01 13:05:42;;;;;;;9.77;6.55;;;;;;;;;;143742;669;46021;-55
2021/09/01 13:08:09;;;;;;;12.57;7.60;;;;;;;;;;143744;594;46020;-55
2021/09/01 13:10:36;;;;;;;10.57;6.68;;;;;;;;;;143735;566;46020;-54
2021/09/01 13:13:05;;;;;;;10.23;6.40;;;;;;;;;;143741;577;47011;-55
2021/09/01 13:15:32;;;;;;;9.07;6.82;;;;;;;;;;143742;633;46021;-54
2021/09/01 13:17:59;;;;;;;8.23;6.35;;;;;;;;;;143742;680;46020;-55
2021/09/01 13:20:27;;;;;;;8.68;6.95;;;;;;;;;;143740;632;46021;-55
2021/09/01 13:22:55;;;;;;;9.65;6.57;;;;;;;;;;143743;585;46010;-54
2021/09/01 13:25:26;;;;;;;11.85;6.78;;;;;;;;;;143742;574;46020;-54
2021/09/01 13:27:53;;;;;;;9.68;6.93;;;;;;;;;;143745;566;46020;-55
2021/09/01 13:30:20;;;;;;;14.10;6.80;;;;;;;;;;143740;566;47020;-53
2021/09/01 13:32:47;;;;;;;9.23;6.93;;;;;;;;;;143743;623;46010;-53
2021/09/01 13:35:14;;;;;;;12.68;6.45;;;;;;;;;;143734;570;46021;-53
2021/09/01 13:37:41;;;;;;;7.05;5.82;;;;;;;;;;143743;732;46010;-53
2021/09/01 13:40:09;;;;;;;8.15;6.00;;;;;;;;;;143741;578;46020;-52
2021/09/01 13:42:36;;;;;;;8.75;5.70;;;;;;;;;;143743;588;46010;-53
2021/09/01 13:45:05;;;;;;;8.65;5.90;;;;;;;;;;143742;611;46020;-52
2021/09/01 13:47:32;;;;;;;10.95;6.20;;;;;;;;;;143742;603;46020;-52
2021/09/01 13:49:59;;;;;;;12.48;6.40;;;;;;;;;;143740;646;47021;-53
2021/09/01 13:52:26;;;;;;;9.65;5.93;;;;;;;;;;143742;590;46010;-54
2021/09/01 13:54:53;;;;;;;8.95;6.50;;;;;;;;;;143742;570;46020;-53
2021/09/01 13:57:20;;;;;;;8.93;5.80;;;;;;;;;;143743;564;46021;-54
2021/09/01 13:59:49;;;;;;;8.75;5.60;;;;;;;;;;143737;665;46020;-53
2021/09/01 14:02:19;;;;;;;7.93;5.70;;;;;;;;;;143742;617;47010;-53
2021/09/01 14:04:46;;;;;;;8.93;6.20;;;;;;;;;;143741;585;46021;-53
2021/09/01 14:07:13;;;;;;;11.00;5.97;;;;;;;;;;143744;597;46010;-53
2021/09/01 14:09:41;;;;;;;7.40;5.45;;;;;;;;;;143741;588;46020;-53
2021/09/01 14:12:09;;;;;;;8.52;6.65;;;;;;;;;;143742;582;46010;-53
2021/09/01 14:14:36;;;;;;;7.80;6.03;;;;;;;;;;143742;564;46020;-52
2021/09/01 14:17:03;;;;;;;7.53;5.68;;;;;;;;;;143745;605;46020;-53
2021/09/01 14:19:31;;;;;;;9.13;6.03;;;;;;;;;;143742;622;46021;-53
2021/09/01 14:21:58;;;;;;;7.82;5.78;;;;;;;;;;143740;565;47010;-54
2021/09/01 14:24:25;;;;;;;11.73;6.25;;;;;;;;;;143736;599;46010;-54
2021/09/01 14:26:53;;;;;;;9.23;6.00;;;;;;;;;;143746;621;46021;-54
2021/09/01 14:29:19;;;;;;;7.18;5.70;;;;;;;;;;143742;608;46020;-54
2021/09/01 14:31:46;;;;;;;8.27;6.15;;;;;;;;;;143743;576;46010;-54
2021/09/01 14:34:13;;;;;;;10.45;6.00;;;;;;;;;;143744;576;46020;-54
2021/09/01 14:36:40;;;;;;;8.40;5.85;;;;;;;;;;143738;587;46020;-54
2021/09/01 14:39:07;;;;;;;8.98;5.87;;;;;;;;;;143741;564;46022;-54